Time;durP1;ratioP1;P1;durP2;ratioP2;P2;SDS_P1;SDS_P2;PMS_P1;PMS_P2;Temp;Humidity;BMP_temperature;BMP_pressure;BME280_temperature;BME280_humidity;BME280_pressure;Samples;Min_cycle;Max_cycle;Signal;HPM_P1;HPM_P2
2023/11/27 00:00:26;;;;;;;6.17;4.30;;;1.70;24.80;;;;;;4972967;28;20211;-72
2023/11/27 00:02:52;;;;;;;6.50;4.10;;;1.60;24.80;;;;;;4974831;28;20209;-72
2023/11/27 00:05:18;;;;;;;9.23;4.50;;;1.60;24.50;;;;;;4975207;28;20427;-72
2023/11/27 00:07:44;;;;;;;4.00;3.27;;;1.60;24.30;;;;;;4975256;28;20204;-73
2023/11/27 00:10:10;;;;;;;8.50;4.40;;;1.60;25.10;;;;;;4974709;28;20236;-73
2023/11/27 00:12:35;;;;;;;6.40;4.82;;;1.50;24.60;;;;;;4974715;28;20207;-72
2023/11/27 00:15:01;;;;;;;6.53;4.00;;;1.50;24.10;;;;;;4974258;28;20270;-72
2023/11/27 00:17:27;;;;;;;6.00;4.13;;;1.50;24.70;;;;;;4974502;28;20661;-73
2023/11/27 00:19:53;;;;;;;5.57;3.65;;;1.40;25.20;;;;;;4974817;28;20448;-73
2023/11/27 00:22:18;;;;;;;6.63;4.70;;;1.40;25.80;;;;;;4974265;28;20661;-73
2023/11/27 00:24:44;;;;;;;6.30;4.70;;;1.30;26.00;;;;;;4974288;28;20592;-73
2023/11/27 00:27:11;;;;;;;5.50;3.17;;;1.30;26.00;;;;;;4973119;28;20181;-72
2023/11/27 00:29:37;;;;;;;6.20;3.58;;;1.20;25.90;;;;;;4973314;28;20189;-74
2023/11/27 00:32:03;;;;;;;7.47;5.40;;;1.20;25.90;;;;;;4974262;28;20204;-72
2023/11/27 00:34:29;;;;;;;7.35;4.72;;;1.20;25.90;;;;;;4974069;28;20198;-73
2023/11/27 00:36:55;;;;;;;7.13;5.40;;;1.20;26.30;;;;;;4974161;28;20216;-75
2023/11/27 00:39:21;;;;;;;7.60;4.70;;;1.20;25.90;;;;;;4974491;28;20827;-73
2023/11/27 00:41:46;;;;;;;6.23;4.13;;;1.20;25.90;;;;;;4974269;28;20181;-72
2023/11/27 00:44:15;;;;;;;6.03;4.10;;;1.20;25.90;;;;;;4974030;28;20277;-72
2023/11/27 00:46:41;;;;;;;6.95;3.65;;;1.20;25.90;;;;;;4974205;28;20179;-72
2023/11/27 00:49:07;;;;;;;7.33;4.03;;;1.20;25.90;;;;;;4974184;28;20186;-72
2023/11/27 00:51:32;;;;;;;5.65;3.75;;;1.20;25.90;;;;;;4974090;28;20200;-72
2023/11/27 00:53:58;;;;;;;10.63;3.23;;;1.30;26.60;;;;;;4973674;28;20200;-73
2023/11/27 00:56:24;;;;;;;6.00;4.30;;;1.30;27.00;;;;;;4972236;28;20254;-72
2023/11/27 00:58:50;;;;;;;6.13;5.07;;;1.30;26.70;;;;;;4972486;28;20280;-71
2023/11/27 01:01:16;;;;;;;6.43;3.90;;;1.40;26.90;;;;;;4973696;28;20257;-71
2023/11/27 01:03:42;;;;;;;7.80;4.80;;;1.40;27.00;;;;;;4973891;28;20983;-72
2023/11/27 01:06:15;;;;;;;7.10;5.43;;;1.50;25.60;;;;;;4973743;28;20418;-71
2023/11/27 01:08:41;;;;;;;7.25;4.70;;;1.50;25.10;;;;;;4972931;28;20175;-72
2023/11/27 01:11:08;;;;;;;6.80;5.05;;;1.50;25.00;;;;;;4972483;28;20236;-72
2023/11/27 01:13:34;;;;;;;6.40;4.40;;;1.50;23.80;;;;;;4973484;28;20285;-73
2023/11/27 01:16:00;;;;;;;5.90;4.55;;;1.60;23.20;;;;;;4973582;28;20549;-73
2023/11/27 01:18:27;;;;;;;6.22;4.80;;;1.60;23.10;;;;;;4973938;28;20202;-70
2023/11/27 01:20:52;;;;;;;5.35;3.38;;;1.60;21.80;;;;;;4973825;28;20173;-72
2023/11/27 01:23:19;;;;;;;9.67;5.50;;;1.60;21.00;;;;;;4973857;28;20198;-71
2023/11/27 01:25:44;;;;;;;5.80;4.22;;;1.60;19.90;;;;;;4973347;28;20456;-72
2023/11/27 01:28:10;;;;;;;7.20;4.90;;;1.60;19.50;;;;;;4973716;28;20213;-71
2023/11/27 01:30:36;;;;;;;6.50;4.30;;;1.60;19.70;;;;;;4972151;28;20483;-73
2023/11/27 01:33:04;;;;;;;7.07;4.70;;;1.70;18.80;;;;;;4973322;28;20871;-72
2023/11/27 01:35:29;;;;;;;5.63;3.97;;;1.70;18.60;;;;;;4972200;28;20186;-72
2023/11/27 01:37:55;;;;;;;12.80;6.00;;;1.60;18.40;;;;;;4973387;28;20558;-73
2023/11/27 01:40:21;;;;;;;6.83;4.93;;;1.60;18.00;;;;;;4973627;28;20259;-71
2023/11/27 01:42:47;;;;;;;5.75;4.20;;;1.60;19.80;;;;;;4973156;28;20213;-72
2023/11/27 01:45:13;;;;;;;8.93;4.60;;;1.60;19.80;;;;;;4973294;28;20194;-72
2023/11/27 01:47:39;;;;;;;8.20;3.70;;;1.60;19.90;;;;;;4973519;28;20177;-72
2023/11/27 01:50:07;;;;;;;6.90;4.60;;;1.50;20.30;;;;;;4972272;28;20230;-73
2023/11/27 01:52:33;;;;;;;9.10;4.78;;;1.50;20.00;;;;;;4973350;28;20824;-72
2023/11/27 01:54:59;;;;;;;5.05;4.10;;;1.60;20.00;;;;;;4972981;28;20182;-71
2023/11/27 01:57:26;;;;;;;4.47;3.30;;;1.60;19.20;;;;;;4972151;28;20188;-72
2023/11/27 01:59:55;;;;;;;7.22;4.40;;;1.60;19.70;;;;;;4973146;28;20538;-73
2023/11/27 02:02:21;;;;;;;7.55;4.28;;;1.50;19.40;;;;;;4973165;28;20177;-72
2023/11/27 02:04:47;;;;;;;6.33;3.60;;;1.50;19.90;;;;;;4971825;28;20197;-72
2023/11/27 02:07:13;;;;;;;5.90;4.13;;;1.50;20.20;;;;;;4973515;28;20613;-73
2023/11/27 02:09:39;;;;;;;5.55;4.15;;;1.50;20.30;;;;;;4973237;28;20448;-72
2023/11/27 02:12:05;;;;;;;11.17;4.30;;;1.40;21.00;;;;;;4972993;28;20246;-73
2023/11/27 02:14:30;;;;;;;5.50;3.53;;;1.40;21.40;;;;;;4973185;28;20194;-73
2023/11/27 02:16:59;;;;;;;5.87;4.23;;;1.30;21.90;;;;;;4973285;28;20178;-72
2023/11/27 02:19:25;;;;;;;5.25;3.40;;;1.30;22.20;;;;;;4973035;28;20173;-73
2023/11/27 02:21:50;;;;;;;4.10;2.73;;;1.20;22.90;;;;;;4973039;28;20177;-72
2023/11/27 02:24:16;;;;;;;5.27;3.70;;;1.20;23.20;;;;;;4972272;28;20241;-73
2023/11/27 02:26:42;;;;;;;3.87;2.80;;;1.30;24.10;;;;;;4977306;28;20662;-73
2023/11/27 02:29:08;;;;;;;7.23;3.97;;;1.30;23.50;;;;;;4976854;28;20684;-73
2023/11/27 02:31:34;;;;;;;5.20;3.73;;;1.30;23.60;;;;;;4975670;28;20467;-73
2023/11/27 02:33:59;;;;;;;6.33;3.73;;;1.30;22.00;;;;;;4975733;28;20206;-71
2023/11/27 02:36:27;;;;;;;4.50;3.87;;;1.40;22.30;;;;;;4976511;28;20499;-72
2023/11/27 02:38:53;;;;;;;5.15;3.20;;;1.40;21.30;;;;;;4976765;28;20166;-73
2023/11/27 02:41:19;;;;;;;4.33;2.80;;;1.40;20.50;;;;;;4976482;28;20188;-73
2023/11/27 02:43:45;;;;;;;3.70;2.80;;;1.40;20.30;;;;;;4976801;28;20448;-74
2023/11/27 02:46:12;;;;;;;5.13;2.30;;;1.40;19.60;;;;;;4976120;28;20644;-73
2023/11/27 02:48:38;;;;;;;6.55;3.33;;;1.40;19.00;;;;;;4976507;28;20407;-72
2023/11/27 02:51:04;;;;;;;4.73;2.83;;;1.40;18.80;;;;;;4976088;28;20227;-72
2023/11/27 02:53:31;;;;;;;4.00;3.10;;;1.30;18.10;;;;;;4976318;28;20562;-72
2023/11/27 02:55:56;;;;;;;3.80;2.67;;;1.40;18.90;;;;;;4976061;28;20665;-73
2023/11/27 02:58:22;;;;;;;4.43;3.30;;;1.40;17.80;;;;;;4975253;28;20214;-72
2023/11/27 03:00:47;;;;;;;3.57;2.07;;;1.40;16.90;;;;;;4976413;28;20183;-73
2023/11/27 03:03:13;;;;;;;4.23;2.23;;;1.40;16.50;;;;;;4975886;28;20221;-74
2023/11/27 03:05:38;;;;;;;8.23;3.10;;;1.40;16.70;;;;;;4976031;28;20662;-73
2023/11/27 03:08:04;;;;;;;3.80;2.50;;;1.40;16.60;;;;;;4975979;28;20193;-73
2023/11/27 03:10:30;;;;;;;5.77;3.93;;;1.40;16.90;;;;;;4975969;28;20556;-72
2023/11/27 03:12:55;;;;;;;5.37;3.80;;;1.30;18.30;;;;;;4975848;28;20353;-73
2023/11/27 03:15:21;;;;;;;4.80;3.50;;;1.30;20.10;;;;;;4975690;28;20192;-73
2023/11/27 03:17:47;;;;;;;4.63;3.30;;;1.30;20.80;;;;;;4975957;28;20177;-73
2023/11/27 03:20:13;;;;;;;5.83;3.63;;;1.30;21.20;;;;;;4974652;28;20181;-73
2023/11/27 03:22:39;;;;;;;6.83;3.13;;;1.30;21.90;;;;;;4975903;28;20491;-73
2023/11/27 03:25:05;;;;;;;4.85;3.60;;;1.30;23.60;;;;;;4975387;28;20287;-72
2023/11/27 03:27:32;;;;;;;4.20;3.43;;;1.30;22.50;;;;;;4975281;28;20214;-73
2023/11/27 03:29:57;;;;;;;6.65;3.70;;;1.30;22.70;;;;;;4973700;28;20639;-71
2023/11/27 03:32:23;;;;;;;4.83;3.50;;;1.30;22.70;;;;;;4974138;28;20213;-73
2023/11/27 03:34:48;;;;;;;5.57;3.90;;;1.20;22.50;;;;;;4975336;28;20241;-71
2023/11/27 03:37:14;;;;;;;8.23;4.03;;;1.20;23.70;;;;;;4976034;28;20548;-72
2023/11/27 03:39:40;;;;;;;7.90;4.10;;;1.30;23.60;;;;;;4974827;28;20177;-72
2023/11/27 03:42:06;;;;;;;5.67;3.60;;;1.30;23.10;;;;;;4975394;28;20183;-71
2023/11/27 03:44:31;;;;;;;6.57;3.58;;;1.30;23.60;;;;;;5016755;23;20594;-69
2023/11/27 03:46:57;;;;;;;6.27;4.30;;;1.30;23.60;;;;;;5014458;28;20231;-67
2023/11/27 03:49:23;;;;;;;4.77;2.93;;;1.30;23.60;;;;;;5014212;28;20175;-68
2023/11/27 03:51:48;;;;;;;5.90;3.93;;;1.30;24.10;;;;;;5014330;28;20232;-68
2023/11/27 03:54:14;;;;;;;9.43;4.43;;;1.30;23.70;;;;;;5013980;28;20240;-68
2023/11/27 03:56:40;;;;;;;6.20;3.70;;;1.20;24.30;;;;;;5012950;28;20176;-68
2023/11/27 03:59:06;;;;;;;4.45;3.00;;;1.30;25.30;;;;;;5014360;28;20896;-68
2023/11/27 04:01:32;;;;;;;5.23;4.03;;;1.40;24.40;;;;;;5014444;28;20188;-68
2023/11/27 04:03:58;;;;;;;4.57;3.07;;;1.40;24.10;;;;;;5014273;28;20205;-68
2023/11/27 04:06:26;;;;;;;4.80;3.75;;;1.50;23.70;;;;;;5014631;28;20177;-68
2023/11/27 04:08:54;;;;;;;8.32;3.17;;;1.50;22.30;;;;;;5014133;28;20176;-68
2023/11/27 04:11:20;;;;;;;3.78;2.95;;;1.50;22.30;;;;;;5013988;28;20175;-68
2023/11/27 04:13:45;;;;;;;5.60;3.63;;;1.40;22.00;;;;;;5013987;28;20195;-67
2023/11/27 04:16:11;;;;;;;4.87;4.10;;;1.40;22.00;;;;;;5013589;28;20172;-67
2023/11/27 04:18:37;;;;;;;5.53;3.70;;;1.40;22.20;;;;;;5013662;28;20176;-68
2023/11/27 04:21:02;;;;;;;6.40;4.30;;;1.30;22.50;;;;;;5013976;28;20173;-68
2023/11/27 04:23:28;;;;;;;8.13;3.10;;;1.30;22.90;;;;;;5012596;28;20231;-68
2023/11/27 04:25:54;;;;;;;5.05;3.83;;;1.20;22.80;;;;;;5013767;28;20182;-69
2023/11/27 04:28:20;;;;;;;4.60;3.30;;;1.10;23.50;;;;;;5013688;28;20656;-69
2023/11/27 04:30:46;;;;;;;5.33;4.47;;;1.10;23.90;;;;;;5013885;28;20230;-68
2023/11/27 04:33:14;;;;;;;4.60;3.53;;;1.00;24.60;;;;;;5014029;28;20621;-69
2023/11/27 04:35:39;;;;;;;5.32;3.92;;;1.00;24.50;;;;;;5013897;28;20226;-67
2023/11/27 04:38:05;;;;;;;6.97;3.90;;;1.00;24.50;;;;;;5013941;28;20180;-68
2023/11/27 04:40:31;;;;;;;4.50;3.27;;;0.90;25.80;;;;;;5012515;28;20424;-68
2023/11/27 04:42:57;;;;;;;6.33;3.53;;;0.90;24.50;;;;;;5013334;28;21183;-68
2023/11/27 04:45:22;;;;;;;4.13;3.57;;;0.90;25.40;;;;;;5013612;28;20679;-68
2023/11/27 04:47:48;;;;;;;6.03;3.27;;;0.90;25.70;;;;;;5013209;28;20172;-67
2023/11/27 04:50:13;;;;;;;5.53;3.73;;;0.90;25.70;;;;;;5013540;28;20709;-69
2023/11/27 04:52:39;;;;;;;5.23;4.20;;;0.90;25.70;;;;;;5013363;28;20211;-68
2023/11/27 04:55:05;;;;;;;5.17;3.63;;;0.80;25.70;;;;;;5013256;28;20184;-68
2023/11/27 04:57:31;;;;;;;5.53;3.85;;;0.80;25.40;;;;;;5013427;28;20604;-68
2023/11/27 04:59:59;;;;;;;6.18;4.10;;;0.70;27.20;;;;;;5013529;28;20176;-68
2023/11/27 05:02:24;;;;;;;5.47;3.35;;;0.70;27.40;;;;;;5013320;28;20179;-68
2023/11/27 05:04:50;;;;;;;6.23;3.10;;;0.70;27.50;;;;;;5013176;28;20199;-69
2023/11/27 05:07:16;;;;;;;7.83;3.20;;;0.70;27.70;;;;;;5011649;28;20532;-69
2023/11/27 05:09:41;;;;;;;4.87;3.70;;;0.60;28.50;;;;;;5012193;28;20422;-69
2023/11/27 05:12:07;;;;;;;4.47;3.20;;;0.60;28.50;;;;;;5012805;28;20668;-69
2023/11/27 05:14:33;;;;;;;4.43;3.00;;;0.60;28.40;;;;;;5012721;28;20188;-69
2023/11/27 05:16:58;;;;;;;4.50;3.00;;;0.60;28.20;;;;;;5012919;28;20866;-68
2023/11/27 05:19:24;;;;;;;4.77;3.00;;;0.60;27.50;;;;;;5011731;28;20176;-68
2023/11/27 05:21:50;;;;;;;4.50;3.43;;;0.60;27.60;;;;;;5012802;28;20176;-68
2023/11/27 05:24:18;;;;;;;5.60;3.47;;;0.60;27.40;;;;;;5012591;28;20192;-68
2023/11/27 05:26:44;;;;;;;7.72;3.53;;;0.50;27.90;;;;;;5012505;28;20443;-69
2023/11/27 05:29:11;;;;;;;4.73;2.27;;;0.50;27.70;;;;;;5012510;28;20278;-69
2023/11/27 05:31:37;;;;;;;4.35;3.05;;;0.50;27.80;;;;;;5012284;28;20195;-69
2023/11/27 05:34:02;;;;;;;5.87;3.50;;;0.50;28.00;;;;;;5012405;28;20203;-69
2023/11/27 05:36:28;;;;;;;4.53;2.60;;;0.50;28.00;;;;;;5012639;28;20903;-68
2023/11/27 05:38:53;;;;;;;6.53;3.23;;;0.50;28.20;;;;;;5012492;28;20211;-68
2023/11/27 05:41:22;;;;;;;9.60;5.20;;;0.50;28.30;;;;;;5012585;28;20541;-68
2023/11/27 05:43:48;;;;;;;4.68;3.60;;;0.50;28.40;;;;;;5012267;28;20235;-68
2023/11/27 05:46:13;;;;;;;5.13;3.55;;;0.50;28.10;;;;;;5012307;28;20173;-68
2023/11/27 05:48:39;;;;;;;7.97;7.17;;;0.50;28.90;;;;;;5012178;28;20181;-68
2023/11/27 05:51:05;;;;;;;7.17;6.47;;;0.60;29.60;;;;;;5012317;28;20180;-67
2023/11/27 05:53:31;;;;;;;10.63;5.13;;;0.60;29.50;;;;;;5012231;28;20691;-68
2023/11/27 05:55:57;;;;;;;4.40;3.83;;;0.60;28.70;;;;;;5012526;28;20542;-69
2023/11/27 05:58:22;;;;;;;4.07;2.80;;;0.70;28.70;;;;;;5012561;28;20172;-68
2023/11/27 06:00:48;;;;;;;5.23;4.10;;;0.70;28.70;;;;;;5015741;28;20178;-68
2023/11/27 06:03:14;;;;;;;6.73;4.27;;;0.70;29.00;;;;;;5016336;28;20231;-69
2023/11/27 06:05:39;;;;;;;6.70;4.83;;;0.70;29.10;;;;;;5016180;28;20175;-69
2023/11/27 06:08:05;;;;;;;5.90;4.60;;;0.70;29.00;;;;;;5016389;28;20234;-69
2023/11/27 06:10:30;;;;;;;7.60;5.60;;;0.70;29.50;;;;;;5016561;28;20176;-69
2023/11/27 06:12:56;;;;;;;7.90;6.30;;;0.80;29.10;;;;;;5016346;28;20199;-68
2023/11/27 06:15:21;;;;;;;9.27;5.97;;;0.80;28.70;;;;;;5015038;28;20186;-69
2023/11/27 06:17:47;;;;;;;6.90;5.00;;;0.90;29.10;;;;;;5016292;28;20179;-69
2023/11/27 06:20:14;;;;;;;7.70;5.10;;;1.00;28.80;;;;;;5016094;28;20259;-69
2023/11/27 06:22:40;;;;;;;8.45;6.18;;;1.00;26.70;;;;;;5014565;28;20191;-69
2023/11/27 06:25:07;;;;;;;9.30;5.70;;;1.00;26.30;;;;;;5015780;28;20177;-69
2023/11/27 06:27:33;;;;;;;6.57;4.85;;;1.10;25.90;;;;;;5016392;28;20183;-68
2023/11/27 06:29:59;;;;;;;8.45;4.95;;;1.10;25.90;;;;;;5015774;28;20583;-68
2023/11/27 06:32:25;;;;;;;8.33;5.33;;;1.20;25.00;;;;;;5015546;28;20518;-68
2023/11/27 06:34:51;;;;;;;10.23;4.77;;;1.20;24.30;;;;;;5015383;28;20638;-68
2023/11/27 06:37:17;;;;;;;8.20;6.20;;;1.20;24.60;;;;;;5015674;28;20413;-69
2023/11/27 06:39:42;;;;;;;8.00;6.43;;;1.30;24.70;;;;;;5015324;28;20176;-68
2023/11/27 06:42:12;;;;;;;7.43;6.00;;;1.30;24.00;;;;;;5015758;28;20416;-68
2023/11/27 06:44:39;;;;;;;9.38;5.32;;;1.40;23.70;;;;;;5015218;28;20460;-68
2023/11/27 06:47:05;;;;;;;5.22;3.88;;;1.40;24.20;;;;;;5015329;28;20254;-68
2023/11/27 06:49:30;;;;;;;5.70;3.90;;;1.30;24.20;;;;;;5015353;28;20283;-69
2023/11/27 06:51:56;;;;;;;4.33;3.63;;;1.40;25.10;;;;;;5015298;28;20464;-69
2023/11/27 06:54:21;;;;;;;5.10;3.63;;;1.40;24.60;;;;;;5015040;28;20274;-68
2023/11/27 06:56:47;;;;;;;6.40;4.00;;;1.40;24.90;;;;;;5015270;28;20177;-68
2023/11/27 06:59:13;;;;;;;6.10;3.50;;;1.50;24.60;;;;;;5015244;28;20177;-68
2023/11/27 07:01:41;;;;;;;7.37;3.73;;;1.50;24.20;;;;;;5015104;28;20676;-67
2023/11/27 07:04:07;;;;;;;10.73;4.80;;;1.50;24.70;;;;;;5015115;28;20204;-68
2023/11/27 07:06:35;;;;;;;7.63;4.97;;;1.50;23.00;;;;;;5014784;28;20226;-67
2023/11/27 07:09:04;;;;;;;10.23;4.78;;;1.60;24.40;;;;;;5015100;28;20172;-67
2023/11/27 07:11:31;;;;;;;7.40;5.00;;;1.70;23.00;;;;;;5014429;28;20173;-67
2023/11/27 07:13:56;;;;;;;5.70;4.72;;;1.70;23.80;;;;;;5014828;28;20188;-67
2023/11/27 07:16:22;;;;;;;6.40;3.30;;;1.80;23.00;;;;;;5014672;28;20172;-68
2023/11/27 07:18:47;;;;;;;9.70;3.60;;;1.90;22.90;;;;;;5014667;28;20192;-68
2023/11/27 07:21:13;;;;;;;6.03;3.27;;;2.00;22.30;;;;;;5014893;28;20170;-67
2023/11/27 07:23:40;;;;;;;6.97;3.60;;;2.00;22.70;;;;;;5014830;28;20251;-69
2023/11/27 07:26:10;;;;;;;5.20;3.92;;;2.00;22.40;;;;;;5013563;28;20208;-71
2023/11/27 07:28:38;;;;;;;6.60;4.70;;;2.10;20.90;;;;;;5015300;28;20176;-70
2023/11/27 07:31:04;;;;;;;6.18;4.15;;;2.10;21.60;;;;;;5016314;28;20172;-69
2023/11/27 07:33:29;;;;;;;5.97;4.00;;;2.10;21.50;;;;;;5015819;28;20214;-70
2023/11/27 07:35:55;;;;;;;5.33;3.97;;;2.00;19.20;;;;;;5014918;28;20261;-70
2023/11/27 07:38:21;;;;;;;5.27;3.73;;;2.00;18.70;;;;;;5014461;28;20198;-69
2023/11/27 07:40:46;;;;;;;4.73;3.73;;;2.10;18.90;;;;;;5014451;28;20204;-69
2023/11/27 07:43:12;;;;;;;5.07;3.47;;;2.30;18.40;;;;;;5014943;28;20699;-68
2023/11/27 07:45:37;;;;;;;4.83;3.10;;;2.40;17.50;;;;;;5014926;28;20177;-69
2023/11/27 07:48:03;;;;;;;5.90;4.20;;;2.50;15.30;;;;;;5015897;28;20184;-72
2023/11/27 07:50:29;;;;;;;4.70;2.50;;;2.50;14.50;;;;;;5014552;28;20176;-73
2023/11/27 07:52:55;;;;;;;7.68;3.95;;;2.60;14.40;;;;;;5015912;28;20278;-69
2023/11/27 07:55:21;;;;;;;4.38;3.28;;;2.70;12.00;;;;;;5017363;28;20174;-69
2023/11/27 07:57:47;;;;;;;6.77;4.57;;;2.70;10.10;;;;;;5017691;28;20176;-68
2023/11/27 08:00:14;;;;;;;4.60;4.10;;;2.80;10.20;;;;;;5017533;28;20179;-69
2023/11/27 08:02:43;;;;;;;6.47;4.35;;;2.80;10.20;;;;;;5015852;28;20664;-70
2023/11/27 08:05:09;;;;;;;6.10;4.60;;;2.90;10.30;;;;;;5017374;28;20175;-69
2023/11/27 08:07:35;;;;;;;7.40;4.83;;;3.00;10.00;;;;;;5016908;28;20256;-68
2023/11/27 08:10:01;;;;;;;7.17;4.63;;;3.10;6.60;;;;;;5016538;28;20187;-69
2023/11/27 08:12:26;;;;;;;6.47;4.43;;;3.10;5.90;;;;;;5016506;28;20241;-69
2023/11/27 08:14:52;;;;;;;8.20;4.53;;;3.20;4.50;;;;;;5016708;28;20437;-69
2023/11/27 08:17:18;;;;;;;7.03;4.67;;;3.20;3.50;;;;;;5015146;28;20182;-68
2023/11/27 08:19:44;;;;;;;8.00;4.50;;;3.30;3.20;;;;;;5015834;28;20173;-69
2023/11/27 08:22:11;;;;;;;6.03;4.90;;;3.30;1.70;;;;;;5013305;28;20175;-69
2023/11/27 08:24:40;;;;;;;6.60;4.00;;;3.50;2.10;;;;;;5015047;28;20778;-70
2023/11/27 08:27:06;;;;;;;9.27;4.28;;;3.50;1.40;;;;;;5015166;28;20418;-69
2023/11/27 08:29:32;;;;;;;6.90;4.88;;;3.50;1.80;;;;;;5015425;28;20249;-69
2023/11/27 08:31:58;;;;;;;7.33;4.70;;;3.60;1.00;;;;;;5014998;28;20222;-69
2023/11/27 08:34:25;;;;;;;6.95;4.15;;;3.70;1.00;;;;;;5014507;28;20199;-71
2023/11/27 08:36:50;;;;;;;6.50;4.90;;;3.80;1.00;;;;;;5013535;28;20276;-68
2023/11/27 08:39:17;;;;;;;6.87;4.03;;;3.90;1.00;;;;;;5014577;28;20517;-69
2023/11/27 08:41:43;;;;;;;7.00;4.27;;;4.00;1.00;;;;;;5014484;28;20183;-67
2023/11/27 08:44:09;;;;;;;14.87;5.50;;;4.00;1.00;;;;;;5010741;28;20476;-69
2023/11/27 08:46:36;;;;;;;13.10;4.83;;;4.10;1.00;;;;;;5011132;28;20443;-68
2023/11/27 08:49:03;;;;;;;7.43;4.40;;;4.20;1.00;;;;;;5009818;28;20463;-68
2023/11/27 08:51:32;;;;;;;8.83;5.63;;;4.40;1.00;;;;;;5010662;28;20468;-68
2023/11/27 08:53:57;;;;;;;6.83;4.33;;;4.40;1.00;;;;;;5011014;28;20538;-68
2023/11/27 08:56:25;;;;;;;7.27;4.23;;;4.50;1.00;;;;;;5011063;28;21046;-69
2023/11/27 08:58:51;;;;;;;5.33;3.80;;;4.70;1.00;;;;;;5013824;28;20179;-70
2023/11/27 09:01:17;;;;;;;5.50;3.93;;;4.90;1.00;;;;;;5013785;28;20419;-69
2023/11/27 09:03:45;;;;;;;6.00;3.57;;;5.00;1.00;;;;;;5013741;28;20199;-69
2023/11/27 09:06:11;;;;;;;6.50;3.67;;;5.00;1.00;;;;;;5013354;28;20182;-69
2023/11/27 09:08:40;;;;;;;5.63;3.93;;;5.10;1.00;;;;;;5013631;28;20414;-70
2023/11/27 09:11:06;;;;;;;8.17;4.47;;;5.10;1.00;;;;;;5013717;28;20251;-68
2023/11/27 09:13:32;;;;;;;8.27;3.90;;;5.10;1.00;;;;;;5013692;28;20892;-70
2023/11/27 09:15:58;;;;;;;6.67;4.00;;;5.10;1.00;;;;;;5013156;28;20190;-69
2023/11/27 09:18:24;;;;;;;4.53;3.43;;;5.20;1.00;;;;;;5012235;28;20452;-70
2023/11/27 09:20:50;;;;;;;6.20;3.37;;;5.30;1.00;;;;;;5013831;28;20172;-69
2023/11/27 09:23:16;;;;;;;4.03;3.07;;;5.40;1.00;;;;;;5012979;28;20942;-69
2023/11/27 09:25:41;;;;;;;5.00;3.57;;;5.50;1.00;;;;;;5013052;28;20272;-69
2023/11/27 09:28:07;;;;;;;3.23;2.90;;;5.50;1.00;;;;;;5012167;28;20451;-69
2023/11/27 09:30:34;;;;;;;5.33;3.13;;;5.50;1.00;;;;;;5013627;28;20659;-70
2023/11/27 09:33:00;;;;;;;4.80;3.87;;;5.60;1.00;;;;;;5012598;28;20486;-70
2023/11/27 09:35:25;;;;;;;3.97;3.50;;;5.80;1.00;;;;;;5013327;28;20435;-70
2023/11/27 09:37:51;;;;;;;5.90;4.20;;;5.90;1.00;;;;;;5013750;28;20184;-69
2023/11/27 09:40:19;;;;;;;3.93;3.40;;;5.90;1.00;;;;;;5013620;28;20267;-70
2023/11/27 09:42:45;;;;;;;5.37;4.40;;;6.20;1.00;;;;;;5013452;28;20539;-69
2023/11/27 09:45:11;;;;;;;4.10;3.63;;;6.40;1.00;;;;;;5024856;23;20500;-71
2023/11/27 09:47:43;;;;;;;4.07;3.57;;;6.70;1.00;;;;;;5010782;28;20478;-71
2023/11/27 09:50:12;;;;;;;6.10;4.13;;;6.80;1.00;;;;;;5012336;28;20258;-70
2023/11/27 09:53:04;;;;;;;4.23;3.70;;;6.80;1.00;;;;;;5011951;28;20450;-71
2023/11/27 09:55:34;;;;;;;5.97;5.37;;;6.80;1.00;;;;;;4992255;28;20498;-70
2023/11/27 09:58:02;;;;;;;5.60;4.43;;;6.90;1.00;;;;;;4992446;28;20412;-70
2023/11/27 10:00:29;;;;;;;4.93;3.90;;;6.80;1.00;;;;;;5007508;28;20497;-71
2023/11/27 10:02:55;;;;;;;5.20;3.63;;;6.70;1.00;;;;;;4992200;28;20440;-71
2023/11/27 10:05:21;;;;;;;3.50;3.13;;;6.60;1.00;;;;;;4990921;28;20486;-71
2023/11/27 10:07:49;;;;;;;3.50;3.20;;;6.50;1.00;;;;;;4992274;28;20417;-71
2023/11/27 10:10:25;;;;;;;4.87;3.87;;;6.50;1.00;;;;;;4992443;28;20939;-72
2023/11/27 10:13:03;;;;;;;4.73;3.73;;;6.40;1.00;;;;;;4992229;28;20534;-71
2023/11/27 10:15:30;;;;;;;3.70;3.10;;;6.40;1.00;;;;;;4992422;28;20415;-72
2023/11/27 10:17:57;;;;;;;4.40;3.47;;;6.30;1.00;;;;;;4991180;28;20417;-71
2023/11/27 10:20:24;;;;;;;3.93;2.90;;;6.40;1.00;;;;;;4992491;28;20506;-71
2023/11/27 10:22:52;;;;;;;5.67;4.37;;;6.40;1.00;;;;;;4992176;28;20499;-71
2023/11/27 10:25:17;;;;;;;5.07;4.57;;;6.60;1.00;;;;;;4990603;28;20445;-72
2023/11/27 10:27:43;;;;;;;5.03;3.93;;;6.70;1.00;;;;;;4992114;28;20419;-71
2023/11/27 10:30:20;;;;;;;6.10;4.47;;;6.60;1.00;;;;;;4992243;28;20553;-71
2023/11/27 10:32:46;;;;;;;6.17;4.20;;;6.60;1.00;;;;;;4992467;28;20468;-71
2023/11/27 10:35:17;;;;;;;5.50;4.10;;;6.60;1.00;;;;;;4992117;28;20444;-72
2023/11/27 10:37:43;;;;;;;7.67;5.27;;;6.70;1.00;;;;;;4992823;28;20408;-72
2023/11/27 10:40:16;;;;;;;7.40;4.90;;;6.80;1.00;;;;;;4990978;28;20425;-71
2023/11/27 10:42:50;;;;;;;7.13;4.37;;;6.90;1.00;;;;;;4991015;28;20405;-71
2023/11/27 10:45:23;;;;;;;5.13;4.17;;;6.90;1.00;;;;;;4993165;28;20828;-71
2023/11/27 10:47:51;;;;;;;6.03;4.53;;;6.90;1.00;;;;;;4996514;28;20842;-71
2023/11/27 10:50:18;;;;;;;4.70;3.83;;;7.00;1.00;;;;;;4996288;28;20412;-69
2023/11/27 10:52:47;;;;;;;7.63;4.90;;;7.10;1.00;;;;;;4995918;28;20450;-70
2023/11/27 10:55:16;;;;;;;5.03;4.17;;;7.20;1.00;;;;;;4995196;28;20967;-69
2023/11/27 10:57:43;;;;;;;6.53;4.10;;;7.20;1.00;;;;;;4995371;28;20421;-69
2023/11/27 11:00:18;;;;;;;6.33;3.77;;;7.20;1.00;;;;;;4994313;28;20773;-69
2023/11/27 11:02:50;;;;;;;6.70;4.63;;;7.40;1.00;;;;;;4995616;28;20409;-70
2023/11/27 11:05:26;;;;;;;4.73;3.87;;;7.40;1.00;;;;;;4995014;28;20434;-70
2023/11/27 11:07:55;;;;;;;5.13;4.63;;;7.40;1.00;;;;;;4994196;28;20419;-69
2023/11/27 11:10:26;;;;;;;4.03;3.63;;;7.30;1.00;;;;;;4995492;28;20429;-70
2023/11/27 11:12:54;;;;;;;4.63;4.07;;;7.20;1.00;;;;;;4995244;28;20464;-70
2023/11/27 11:15:34;;;;;;;3.83;3.43;;;7.10;1.00;;;;;;4995369;28;20439;-70
2023/11/27 11:18:24;;;;;;;5.83;4.40;;;7.20;1.00;;;;;;4995562;28;20423;-70
2023/11/27 11:21:05;;;;;;;5.33;4.83;;;7.30;1.00;;;;;;5011735;28;20423;-70
2023/11/27 11:24:08;;;;;;;3.70;3.37;;;7.30;1.00;;;;;;4995180;28;20438;-70
2023/11/27 11:26:42;;;;;;;4.93;4.00;;;7.40;1.00;;;;;;4995270;28;20746;-70
2023/11/27 11:29:14;;;;;;;5.30;4.30;;;7.50;1.00;;;;;;4994916;28;20827;-70
2023/11/27 11:32:03;;;;;;;4.50;3.57;;;7.50;1.00;;;;;;4993590;28;20940;-70
2023/11/27 11:34:32;;;;;;;4.63;4.20;;;7.50;1.00;;;;;;4994619;28;20822;-70
2023/11/27 11:37:00;;;;;;;5.33;4.57;;;7.60;1.00;;;;;;4994707;28;20427;-70
2023/11/27 11:39:26;;;;;;;4.10;3.57;;;7.50;1.00;;;;;;4994830;28;20450;-70
2023/11/27 11:42:03;;;;;;;5.20;4.07;;;7.50;1.00;;;;;;4994914;28;20434;-69
2023/11/27 11:44:35;;;;;;;7.17;4.70;;;7.40;1.00;;;;;;4994336;28;20457;-70
2023/11/27 11:47:21;;;;;;;4.83;4.43;;;7.40;1.00;;;;;;4994728;28;20449;-70
2023/11/27 11:49:47;;;;;;;5.07;4.17;;;7.40;1.00;;;;;;4990562;28;20521;-69
2023/11/27 11:52:15;;;;;;;3.63;3.33;;;7.50;1.00;;;;;;4994388;28;20555;-70
2023/11/27 11:54:41;;;;;;;3.90;3.60;;;7.30;1.00;;;;;;4994012;28;20199;-70
2023/11/27 11:57:22;;;;;;;3.40;3.20;;;7.30;1.00;;;;;;4994304;28;20426;-70
2023/11/27 11:59:51;;;;;;;4.50;4.07;;;7.10;1.00;;;;;;4994722;28;20415;-70
2023/11/27 12:02:19;;;;;;;3.80;3.50;;;7.10;1.00;;;;;;4994739;28;20781;-70
2023/11/27 12:04:45;;;;;;;4.37;3.97;;;7.00;1.00;;;;;;4994647;28;20474;-70
2023/11/27 12:07:13;;;;;;;3.90;3.60;;;7.10;1.00;;;;;;4994350;28;20894;-70
2023/11/27 12:09:41;;;;;;;4.33;4.03;;;7.10;1.00;;;;;;4994337;28;20418;-70
2023/11/27 12:12:16;;;;;;;3.73;3.53;;;6.90;1.00;;;;;;4994080;28;20465;-70
2023/11/27 12:14:43;;;;;;;3.40;3.10;;;6.70;1.00;;;;;;4994251;28;20454;-70
2023/11/27 12:17:08;;;;;;;3.77;3.47;;;6.60;1.00;;;;;;4994018;28;20496;-71
2023/11/27 12:19:34;;;;;;;5.63;2.73;;;6.50;1.00;;;;;;4993999;28;20502;-70
2023/11/27 12:22:00;;;;;;;3.63;3.33;;;6.60;1.00;;;;;;4994063;28;20181;-71
2023/11/27 12:24:27;;;;;;;3.70;3.40;;;6.60;1.00;;;;;;4993714;28;20782;-70
2023/11/27 12:26:52;;;;;;;3.50;3.20;;;6.60;1.00;;;;;;4993925;28;20181;-68
2023/11/27 12:29:22;;;;;;;3.50;3.23;;;6.70;1.00;;;;;;4993984;28;20441;-70
2023/11/27 12:31:53;;;;;;;3.20;3.00;;;6.70;1.00;;;;;;4993707;28;20201;-69
2023/11/27 12:34:24;;;;;;;3.40;3.10;;;6.70;1.00;;;;;;4993501;28;20919;-73
2023/11/27 12:36:51;;;;;;;4.10;3.33;;;6.70;1.00;;;;;;5008680;28;21036;-69
2023/11/27 12:39:25;;;;;;;3.30;3.10;;;6.50;1.00;;;;;;4992388;28;20496;-70
2023/11/27 12:42:01;;;;;;;3.90;3.60;;;6.40;1.00;;;;;;4993599;28;20428;-69
2023/11/27 12:44:29;;;;;;;4.00;3.70;;;6.40;1.00;;;;;;4993270;28;20451;-70
2023/11/27 12:46:55;;;;;;;4.23;3.83;;;6.40;1.00;;;;;;4993642;28;20512;-71
2023/11/27 12:49:25;;;;;;;4.17;3.77;;;6.30;1.00;;;;;;4993435;28;20939;-70
2023/11/27 12:51:52;;;;;;;4.27;2.97;;;6.40;1.00;;;;;;4992222;28;20556;-70
2023/11/27 12:54:18;;;;;;;5.10;3.60;;;6.40;1.00;;;;;;4993099;28;20952;-70
2023/11/27 12:56:51;;;;;;;2.97;2.67;;;6.20;1.00;;;;;;4988366;28;20531;-74
2023/11/27 12:59:17;;;;;;;4.00;3.27;;;6.20;1.00;;;;;;4988110;28;20465;-74